SSEC Globe Logo

Space Science and Engineering Center

Surface Aviation Observations

KAIG 181055Z AUTO 19007KT 10SM CLR 06/05 A2997 RMK AO2
     T00620050=
KC29 181055Z AUTO 19008KT 10SM CLR 10/06 A3006 RMK AO1
     T00980057=
KBCK 181055Z AUTO 00000KT 4SM BR CLR 04/04 A2996 RMK AO2
     T00350035=
KUBE 181055Z AUTO 00000KT 10SM CLR 07/05 A2987 RMK AO2=
KPVB 181055Z AUTO 16005KT 10SM CLR 09/07 A3005 RMK AO1
     T00860067=
KEZS 181055Z AUTO 00000KT 10SM CLR 10/07 A3000 RMK AO2
     T00970065=
KARV 181055Z AUTO 18005KT 10SM CLR 10/07 A2992 RMK AO2
     T00960072=
KASX 181053Z AUTO 17004KT 10SM CLR 12/06 A2982 RMK AO2
     SLP098 T01170061=
KATW 181045Z 21009KT 10SM SKC 10/04 A3001=
KAUW 181054Z AUTO 17005KT 10SM CLR 09/07 A2995 RMK AO2
     SLP148 T00890067=
KBUU 181050Z AUTO 20004KT 10SM CLR 07/05 A3012 RMK AO2
     T00720050=
KCLI 181059Z AUTO 20005KT 10SM CLR 09/06 A3001 RMK AO2=
KCMY 181055Z AUTO 19005KT 10SM CLR 08/06 A2999 RMK AO2
     T00830063=
KDLL 181055Z AUTO 20008KT 10SM CLR 11/05 A3003 RMK AO2
     T01060053=
KEAU 181056Z 18005KT 10SM CLR 09/06 A2990 RMK AO2 SLP127
     T00890061=
KEFT 181055Z AUTO 18011KT 10SM CLR 08/04 A3007 RMK AO2=
KEGV 181055Z AUTO 00000KT 10SM CLR 08/06 A2993 RMK AO2
     T00780061=
KENW 181053Z AUTO 20006KT 10SM CLR 09/04 A3013 RMK AO2
     SLP202 T00940044=
KETB 181055Z AUTO 19004KT 10SM CLR 11/04 A3008 RMK AO2=
KFLD 181053Z AUTO 21007KT 10SM CLR 11/05 A3004 RMK AO2
     SLP175 T01110050=
KGRB 181053Z 19006KT 10SM CLR 11/08 A3002 RMK AO2 SLP165
     T01110078=
KHYR 181053Z AUTO 19005KT 10SM CLR 10/06 A2986 RMK AO2
     SLP112 T01000056=
KISW 181054Z AUTO 19006KT 10SM CLR 09/06 A3000 RMK AO2
     SLP160 T00940061=
KJVL 181055Z AUTO 18006KT 10SM CLR 10/05 A3010 RMK AO2=
KLNL 181055Z AUTO 00000KT 10SM CLR 08/06 A2993 RMK AO2
     T00770058=
KLNR 181056Z AUTO 14005KT 10SM CLR 09/06 A3004 RMK AO2
     SLP167 T00890061=
KLSE 181053Z 17009KT 10SM CLR 13/08 A2996 RMK AO2 SLP141
     T01280078=
KLUM 181055Z AUTO 10005KT 10SM CLR 08/06 A2990 RMK AO2
     T00810059=
KMDZ 181055Z AUTO 17007KT 10SM CLR 07/05 A2994 RMK AO2
     T00740052=
KMFI 181054Z AUTO 17007KT 10SM CLR 08/05 A2995 RMK AO2
     SLP146 T00780050 TSNO=
KMKE 181052Z 20007KT 10SM CLR 11/05 A3011 RMK AO2 SLP195
     T01060050=
KMRJ 181055Z AUTO 15007KT 10SM CLR 09/07 A3005 RMK AO2=
KMSN 181053Z 19009KT 10SM CLR 10/06 A3006 RMK AO2 SLP180
     T01000056=
KMTW 181056Z AUTO 16003KT 10SM CLR 10/06 A3005 RMK AO2
     SLP198 T01000056=
KMWC 181055Z AUTO 20007KT 10SM CLR 10/03 A3010 RMK AO2=
KOEO 181055Z AUTO 14005KT 10SM CLR 10/07 A2987 RMK AO2
     T01040066=
KOSH 181053Z 20012KT 10SM CLR 10/06 A3002 RMK AO2 SLP165
     T01000061=
KOVS 181053Z AUTO 00000KT 10SM CLR 05/04 A3003 RMK AO2
     SLP170 T00500039=
KPBH 181055Z AUTO 18004KT 10SM CLR 08/06 A2991 RMK AO2
     T00780061=
KPCZ 181055Z AUTO 19004KT 10SM CLR 09/06 A3001 RMK AO2
     T00900063=
KPDC 181055Z AUTO 10006KT 10SM CLR 11/06 A3001 RMK AO2
     T01090058=
KRAC 181053Z AUTO 21009KT 10SM CLR 10/05 A3013 RMK AO2
     SLP202 T01000050=
KRCX 181055Z AUTO 16007KT 10SM CLR 10/07 A2991 RMK AO2
     T01000066=
KRHI 181053Z AUTO 21007KT 10SM CLR 10/07 A2994 RMK AO2
     SLP142 T01000067=
KRNH 181055Z AUTO 17007KT 10SM CLR 10/06 A2986 RMK AO2
     T00950057=
KRPD 181055Z AUTO 12004KT 10SM CLR 08/06 A2989 RMK AO2
     T00780060=
KRRL 181055Z AUTO 19004KT 10SM CLR 09/07 A2996 RMK AO2
     T00920065=
KRYV 181055Z AUTO 18006KT 10SM CLR 08/06 A3008 RMK AO2
     T00820061=
KRZN 181055Z AUTO 17005KT 10SM CLR 10/06 A2984 RMK AO2
     T00960059=
KSBM 181053Z AUTO 20006KT 10SM CLR 09/06 A3006 RMK AO2
     SLP180 T00890061 TSNO=
KSTE 181055Z AUTO 20006KT 10SM CLR 08/05 A2999 RMK AO2
     T00770054=
KSUE 181056Z AUTO 20007KT 10SM CLR 11/06 A3002 RMK AO2
     SLP188 T01110061=
KSUW 181055Z AUTO 20005KT 10SM CLR 08/05 A2977 RMK AO2
     T00760051=
KTKV 181055Z AUTO 00000KT 10SM CLR 05/04 A2995 RMK AO2
     T00460040=
KUES 181045Z 21006KT 10SM SKC 09/04 A3010=
KUNU 181055Z AUTO 18007KT 10SM CLR 09/05 A3008 RMK AO2
     T00910052=
KVOK 181058Z AUTO 00000KT 10SM CLR 09/06 A3000 RMK AO2
     SLP163 T00860055=
KVOK 181058Z AUTO 00000KT 10SM CLR 09/06 A3000 RMK AO2
     SLP163 T00860055=
METAR KVOK 181058Z AUTO 00000KT 10SM CLR 09/06 A3000 RMK AO2
     SLP163 T00860055=
METAR KVOK 181058Z AUTO 00000KT 10SM CLR 09/06 A3000 RMK AO2
     SLP163 T00860055=
KY50 181056Z AUTO 00000KT 10SM CLR 03/03 A3003 RMK AO2
     SLP198 T00330028 PNO $=
KY51 181055Z AUTO 16005KT 10SM CLR 10/07 A3000 RMK AO1
     T00950070=
KDBQ 181053Z 18009KT 10SM CLR 08/06 A3004 RMK AO2 SLP175
     T00780056=
KRST 181054Z 18011KT 10SM CLR 09/07 A2993 RMK AO2 SLP136
     T00890067=
KMSP 181053Z 15006KT 10SM CLR 10/07 A2986 RMK AO2 SLP109
     T01000072=
KRFD 181054Z 17005KT 10SM CLR 07/04 A3013 RMK AO2 SLP205
     T00720039 $=
KORD 181051Z 19006KT 10SM CLR 09/05 A3015 RMK AO2 SLP210
     T00890050=